Time;durP1;ratioP1;P1;durP2;ratioP2;P2;SDS_P1;SDS_P2;PMS_P1;PMS_P2;Temp;Humidity;BMP_temperature;BMP_pressure;BME280_temperature;BME280_humidity;BME280_pressure;Samples;Min_cycle;Max_cycle;Signal;HPM_P1;HPM_P2
2021/07/27 01:11:49;;;;;;;7.90;4.63;;;20.50;81.20;;;;;;5052846;28;20176;-90
2021/07/27 01:14:15;;;;;;;5.07;4.30;;;20.60;80.30;;;;;;5054983;28;20173;-90
2021/07/27 01:16:41;;;;;;;5.55;5.05;;;20.50;80.50;;;;;;5054360;28;20556;-90
2021/07/27 01:19:31;;;;;;;5.68;5.18;;;20.60;80.00;;;;;;5054716;28;20185;-90
2021/07/27 01:43:48;;;;;;;6.72;5.05;;;20.50;80.60;;;;;;4997843;28;20659;-90
2021/07/27 01:46:23;;;;;;;5.82;5.07;;;20.60;80.50;;;;;;5020188;28;20280;-89
2021/07/27 01:48:50;;;;;;;5.13;4.72;;;20.70;80.40;;;;;;5039219;28;20196;-90
2021/07/27 01:51:17;;;;;;;5.70;5.20;;;20.70;79.70;;;;;;5042079;28;20180;-90
2021/07/27 01:53:55;;;;;;;6.03;4.47;;;20.70;79.70;;;;;;5060148;28;20172;-90
2021/07/27 01:56:23;;;;;;;9.68;5.22;;;20.80;79.60;;;;;;5058228;28;20172;-90
2021/07/27 01:58:50;;;;;;;5.35;4.82;;;20.80;79.30;;;;;;5058489;28;20195;-91
2021/07/27 02:01:19;;;;;;;8.23;4.93;;;20.80;78.80;;;;;;5056108;28;20260;-90
2021/07/27 02:03:45;;;;;;;6.10;5.13;;;20.80;78.60;;;;;;5057878;28;20199;-90
2021/07/27 02:06:11;;;;;;;7.60;5.07;;;20.80;78.70;;;;;;5057761;28;20858;-91
2021/07/27 02:08:37;;;;;;;5.75;5.13;;;20.70;78.90;;;;;;5057908;28;20202;-90
2021/07/27 02:11:05;;;;;;;5.07;4.57;;;20.70;79.40;;;;;;5057116;28;20207;-91
2021/07/27 02:13:44;;;;;;;6.07;5.05;;;20.70;79.20;;;;;;5058469;28;20176;-90
2021/07/27 02:16:10;;;;;;;8.70;6.20;;;20.70;79.10;;;;;;5057894;28;20635;-90
2021/07/27 02:18:36;;;;;;;6.93;5.30;;;20.70;79.50;;;;;;5052582;28;20266;-90
2021/07/27 02:21:01;;;;;;;5.28;4.88;;;20.60;79.80;;;;;;5037642;28;20197;-90
2021/07/27 02:23:27;;;;;;;5.47;5.07;;;20.50;80.20;;;;;;5037590;28;20236;-90
2021/07/27 02:25:53;;;;;;;5.68;5.13;;;20.50;80.20;;;;;;5020052;28;20558;-90
2021/07/27 02:28:19;;;;;;;7.53;5.05;;;20.60;79.70;;;;;;5039690;28;20272;-90
2021/07/27 02:30:49;;;;;;;6.18;5.60;;;20.60;79.50;;;;;;5056567;28;20706;-90
2021/07/27 02:33:15;;;;;;;6.95;5.28;;;20.50;80.20;;;;;;5057458;28;20168;-90
2021/07/27 02:35:41;;;;;;;6.78;5.25;;;20.50;80.40;;;;;;5039003;28;20622;-90
2021/07/27 02:38:07;;;;;;;5.00;4.60;;;20.50;80.10;;;;;;5056295;28;20200;-90
2021/07/27 02:40:33;;;;;;;6.28;5.50;;;20.50;79.40;;;;;;5019052;28;20218;-90
2021/07/27 02:43:04;;;;;;;5.90;4.63;;;20.60;78.50;;;;;;5036840;28;20177;-90
2021/07/27 02:45:30;;;;;;;6.97;5.57;;;20.50;78.10;;;;;;5035357;28;20239;-90
2021/07/27 02:47:56;;;;;;;5.85;5.25;;;20.50;78.30;;;;;;5035984;28;20216;-90
2021/07/27 02:50:28;;;;;;;6.10;5.18;;;20.50;78.60;;;;;;5036558;28;20180;-90
2021/07/27 02:52:54;;;;;;;5.30;4.80;;;20.40;78.40;;;;;;5019284;28;20194;-90
2021/07/27 02:55:20;;;;;;;5.55;4.78;;;20.40;78.70;;;;;;5037497;28;20184;-91
2021/07/27 02:57:50;;;;;;;5.45;4.95;;;20.30;78.50;;;;;;5036986;28;20287;-90
2021/07/27 03:00:16;;;;;;;5.35;4.85;;;20.30;78.60;;;;;;5037192;28;20222;-90
2021/07/27 03:02:44;;;;;;;6.55;5.10;;;20.30;78.90;;;;;;5057098;28;20180;-90
2021/07/27 03:05:14;;;;;;;6.53;5.40;;;20.30;79.70;;;;;;5057995;28;20179;-90
2021/07/27 03:10:21;;;;;;;5.68;4.97;;;20.30;79.70;;;;;;5040194;28;20184;-91
2021/07/27 03:12:52;;;;;;;5.40;4.90;;;20.30;79.50;;;;;;5037588;28;20160;-90
2021/07/27 03:15:29;;;;;;;7.85;5.65;;;20.40;79.60;;;;;;5036988;28;20268;-90
2021/07/27 03:18:00;;;;;;;6.22;5.70;;;20.40;79.70;;;;;;5036453;28;20195;-90
2021/07/27 03:20:27;;;;;;;6.18;5.28;;;20.40;79.70;;;;;;5037090;28;20195;-90
2021/07/27 03:22:56;;;;;;;6.72;5.85;;;20.50;79.50;;;;;;5038541;28;20594;-90
2021/07/27 03:25:23;;;;;;;6.18;5.68;;;20.40;79.30;;;;;;5056931;28;20191;-90
2021/07/27 03:27:51;;;;;;;7.43;6.72;;;20.30;80.20;;;;;;5056379;28;20305;-90
2021/07/27 03:30:18;;;;;;;7.93;6.80;;;20.10;81.50;;;;;;5039480;28;20265;-90
2021/07/27 03:32:45;;;;;;;6.68;6.07;;;19.90;82.80;;;;;;5036490;28;20180;-90
2021/07/27 03:35:18;;;;;;;7.22;6.13;;;19.70;82.90;;;;;;5036793;28;20184;-90
2021/07/27 03:37:44;;;;;;;6.82;6.20;;;19.60;84.70;;;;;;5037003;28;20205;-90
2021/07/27 03:40:11;;;;;;;9.35;6.65;;;19.40;84.30;;;;;;5052822;28;20201;-90
2021/07/27 03:42:37;;;;;;;8.02;6.07;;;19.40;84.00;;;;;;5055943;28;20216;-90
2021/07/27 03:45:03;;;;;;;6.30;5.80;;;19.20;84.70;;;;;;5056822;28;20213;-90
2021/07/27 03:47:29;;;;;;;6.28;5.57;;;19.40;84.50;;;;;;5038248;28;20271;-90
2021/07/27 03:49:55;;;;;;;5.97;5.38;;;19.40;83.90;;;;;;5042628;28;20268;-90
2021/07/27 03:52:21;;;;;;;9.02;6.03;;;19.60;83.40;;;;;;5036157;28;20245;-90
2021/07/27 03:54:46;;;;;;;6.28;5.78;;;19.70;82.40;;;;;;5036015;28;20187;-91
2021/07/27 03:57:12;;;;;;;6.43;5.93;;;19.80;82.10;;;;;;5035579;28;20198;-90
2021/07/27 03:59:38;;;;;;;7.47;5.45;;;19.90;81.70;;;;;;5047120;28;20715;-90
2021/07/27 04:02:04;;;;;;;6.22;5.53;;;20.00;81.20;;;;;;5055083;28;20698;-90
2021/07/27 04:04:34;;;;;;;6.30;5.80;;;20.00;80.70;;;;;;5055030;28;20296;-90
2021/07/27 04:07:00;;;;;;;7.53;5.88;;;20.00;80.50;;;;;;5038090;28;20304;-89
2021/07/27 04:09:27;;;;;;;7.32;5.85;;;20.00;80.70;;;;;;5045459;28;20219;-90
2021/07/27 04:11:53;;;;;;;9.07;6.07;;;20.00;80.70;;;;;;5016540;28;20190;-89
2021/07/27 04:14:19;;;;;;;6.82;5.65;;;20.10;80.60;;;;;;5034978;28;20178;-90
2021/07/27 04:16:44;;;;;;;6.03;5.43;;;20.10;80.50;;;;;;5034664;28;20188;-89
2021/07/27 04:19:10;;;;;;;6.80;6.25;;;20.20;80.60;;;;;;5041717;28;20191;-90
2021/07/27 04:21:36;;;;;;;6.82;5.07;;;20.10;80.70;;;;;;5054914;28;20857;-89
2021/07/27 04:24:02;;;;;;;7.20;5.22;;;20.10;79.40;;;;;;5054803;28;20182;-90
2021/07/27 04:26:28;;;;;;;5.60;5.07;;;19.90;79.60;;;;;;5040519;28;20190;-91
2021/07/27 04:28:53;;;;;;;5.90;5.40;;;19.90;80.30;;;;;;5036474;28;20234;-90
2021/07/27 04:31:20;;;;;;;7.00;5.55;;;19.80;80.20;;;;;;5036812;28;20184;-90
2021/07/27 04:33:46;;;;;;;6.20;5.70;;;19.80;80.30;;;;;;5048697;28;20265;-90
2021/07/27 04:36:12;;;;;;;5.93;5.30;;;19.90;81.10;;;;;;5034983;28;20177;-90
2021/07/27 04:38:38;;;;;;;5.90;5.40;;;19.80;81.00;;;;;;5032429;28;20212;-90
2021/07/27 04:41:06;;;;;;;6.35;5.85;;;19.90;81.10;;;;;;5035271;28;20174;-91
2021/07/27 04:43:33;;;;;;;7.55;5.70;;;19.90;80.90;;;;;;5044635;28;20175;-90
2021/07/27 04:46:02;;;;;;;6.35;5.75;;;19.90;80.90;;;;;;5031928;28;20840;-90
2021/07/27 04:48:28;;;;;;;6.43;4.90;;;19.90;80.50;;;;;;5049526;28;20218;-90
2021/07/27 04:50:54;;;;;;;5.35;4.95;;;19.90;80.40;;;;;;5042344;28;20182;-90
2021/07/27 04:53:23;;;;;;;5.85;5.35;;;19.90;80.50;;;;;;5019656;28;20202;-90
2021/07/27 04:55:53;;;;;;;6.03;5.53;;;20.00;80.60;;;;;;5035365;28;20180;-90
2021/07/27 04:58:19;;;;;;;5.93;5.43;;;20.00;80.40;;;;;;5034488;28;20202;-90
2021/07/27 05:00:44;;;;;;;5.53;5.07;;;20.00;80.60;;;;;;5016811;28;20246;-90
2021/07/27 05:03:11;;;;;;;6.25;5.75;;;20.10;80.70;;;;;;5018202;28;20239;-90
2021/07/27 05:05:37;;;;;;;7.38;5.28;;;20.10;81.10;;;;;;5045019;28;20240;-90
2021/07/27 05:08:02;;;;;;;6.88;6.18;;;20.20;80.80;;;;;;5054160;28;20220;-90
2021/07/27 05:10:28;;;;;;;7.07;6.28;;;20.20;80.80;;;;;;5054357;28;20166;-91
2021/07/27 05:12:55;;;;;;;8.13;6.63;;;20.20;81.00;;;;;;5037102;28;20194;-91
2021/07/27 05:15:21;;;;;;;8.40;7.28;;;20.10;81.70;;;;;;5054233;28;20204;-91
2021/07/27 05:18:00;;;;;;;7.43;6.20;;;20.20;81.60;;;;;;5054649;28;20204;-91
2021/07/27 05:20:27;;;;;;;6.95;6.25;;;20.10;82.00;;;;;;5054799;28;20182;-90
2021/07/27 05:22:53;;;;;;;6.97;6.18;;;20.10;81.60;;;;;;5050835;28;20260;-90
2021/07/27 05:25:19;;;;;;;7.40;6.65;;;20.30;80.90;;;;;;5041052;28;20181;-90
2021/07/27 05:27:47;;;;;;;8.55;7.18;;;20.40;81.30;;;;;;5034928;28;20246;-90
2021/07/27 05:30:14;;;;;;;7.53;6.93;;;20.20;82.60;;;;;;5018986;28;20692;-91
2021/07/27 05:32:41;;;;;;;8.38;7.50;;;19.80;84.30;;;;;;5042268;28;20179;-90
2021/07/27 05:35:07;;;;;;;7.70;7.00;;;19.90;84.60;;;;;;5040518;28;20241;-90
2021/07/27 05:37:33;;;;;;;9.15;7.22;;;19.90;85.60;;;;;;5052067;28;20216;-90
2021/07/27 05:39:59;;;;;;;8.23;7.35;;;19.80;86.00;;;;;;5044149;28;20195;-90
2021/07/27 05:42:25;;;;;;;8.35;7.65;;;20.00;86.40;;;;;;5034120;28;20188;-91
2021/07/27 05:44:50;;;;;;;7.78;6.80;;;19.90;87.70;;;;;;5037776;28;20229;-90
2021/07/27 05:47:16;;;;;;;7.93;7.10;;;20.10;87.30;;;;;;5050877;28;20222;-90
2021/07/27 05:49:42;;;;;;;7.88;7.10;;;20.20;87.50;;;;;;5017486;28;20197;-91
2021/07/27 05:52:11;;;;;;;7.97;7.18;;;20.10;87.90;;;;;;5046548;28;20185;-92
2021/07/27 05:54:38;;;;;;;7.20;6.47;;;20.10;88.00;;;;;;5025519;28;20186;-90
2021/07/27 05:57:04;;;;;;;7.53;6.90;;;20.00;87.60;;;;;;5054174;28;20201;-90
2021/07/27 05:59:29;;;;;;;9.07;6.13;;;20.20;86.60;;;;;;5034755;28;20180;-91
2021/07/27 06:01:55;;;;;;;10.85;6.60;;;20.30;86.30;;;;;;5033634;28;20181;-88
2021/07/27 06:04:21;;;;;;;7.50;6.80;;;20.30;86.00;;;;;;5033912;28;20193;-88
2021/07/27 06:06:47;;;;;;;7.80;7.03;;;20.10;86.70;;;;;;5033055;28;20213;-87
2021/07/27 06:09:14;;;;;;;7.80;7.03;;;20.10;86.50;;;;;;5042983;28;20198;-87
2021/07/27 06:11:40;;;;;;;7.03;6.43;;;20.10;86.80;;;;;;5037515;28;20655;-88
2021/07/27 06:14:09;;;;;;;7.90;6.25;;;20.40;86.60;;;;;;5044785;28;20275;-87
2021/07/27 06:16:39;;;;;;;7.40;6.78;;;20.60;85.20;;;;;;5042158;28;20204;-88
2021/07/27 06:19:11;;;;;;;7.97;7.18;;;20.50;85.10;;;;;;5044104;28;21771;-87
2021/07/27 06:21:40;;;;;;;7.97;6.68;;;20.40;85.50;;;;;;5043928;28;20240;-87
2021/07/27 06:24:07;;;;;;;8.35;7.00;;;20.30;86.50;;;;;;5040240;28;20210;-87
2021/07/27 06:26:33;;;;;;;7.65;7.00;;;20.30;87.70;;;;;;5047398;28;20561;-88
2021/07/27 06:29:00;;;;;;;7.97;7.00;;;20.30;87.60;;;;;;5044800;28;20199;-88
2021/07/27 06:31:26;;;;;;;7.38;6.57;;;20.40;86.50;;;;;;5043813;28;20202;-87
2021/07/27 06:33:52;;;;;;;9.60;6.93;;;20.70;85.00;;;;;;5044729;28;20184;-88
2021/07/27 06:36:18;;;;;;;7.72;7.00;;;20.70;84.90;;;;;;5046661;28;20188;-88
2021/07/27 06:38:43;;;;;;;7.78;6.93;;;20.90;83.00;;;;;;5051349;28;20267;-88
2021/07/27 06:41:10;;;;;;;7.45;6.50;;;20.90;84.50;;;;;;5031749;28;20552;-88
2021/07/27 06:43:37;;;;;;;7.38;6.70;;;21.00;84.10;;;;;;5048650;28;20188;-89
2021/07/27 06:46:03;;;;;;;8.25;7.55;;;21.20;84.50;;;;;;5035475;28;20188;-88
2021/07/27 06:48:28;;;;;;;7.85;7.03;;;21.10;82.40;;;;;;5030071;28;20216;-88
2021/07/27 06:50:54;;;;;;;7.97;6.90;;;21.10;83.20;;;;;;5026391;28;20854;-88
2021/07/27 06:53:20;;;;;;;9.35;7.22;;;21.40;83.10;;;;;;5050760;28;20186;-87
2021/07/27 06:55:46;;;;;;;7.25;6.53;;;21.20;83.40;;;;;;5046184;28;20180;-88
2021/07/27 06:58:13;;;;;;;8.20;7.45;;;21.30;82.50;;;;;;5047854;28;20211;-88
2021/07/27 07:00:39;;;;;;;7.88;7.18;;;21.30;82.70;;;;;;5027155;28;20218;-87
2021/07/27 07:03:06;;;;;;;9.20;7.30;;;21.30;83.10;;;;;;5039154;28;20211;-88
2021/07/27 07:05:32;;;;;;;9.43;7.60;;;21.20;81.90;;;;;;5041967;28;20196;-87
2021/07/27 07:07:57;;;;;;;8.05;7.25;;;21.20;81.90;;;;;;5040490;28;20226;-87
2021/07/27 07:10:23;;;;;;;10.00;7.10;;;21.30;82.60;;;;;;5038416;28;20660;-88
2021/07/27 07:12:49;;;;;;;8.43;7.30;;;21.50;83.00;;;;;;5043956;28;20239;-88
2021/07/27 07:15:15;;;;;;;8.05;7.25;;;21.50;79.70;;;;;;5050036;28;20195;-88
2021/07/27 07:17:40;;;;;;;7.93;7.18;;;21.50;80.30;;;;;;5045785;28;20238;-88
2021/07/27 07:20:07;;;;;;;6.53;6.03;;;21.50;79.80;;;;;;5045684;28;20229;-90
2021/07/27 07:22:32;;;;;;;7.10;6.47;;;21.70;77.00;;;;;;5048599;28;20218;-90
2021/07/27 07:24:58;;;;;;;7.20;6.57;;;21.70;77.60;;;;;;5042748;28;20203;-90
2021/07/27 07:27:24;;;;;;;6.93;6.43;;;21.70;77.90;;;;;;5042621;28;20553;-91
2021/07/27 07:29:57;;;;;;;8.05;7.32;;;21.70;78.70;;;;;;5041173;28;20192;-90
2021/07/27 07:32:22;;;;;;;7.93;7.03;;;21.80;78.40;;;;;;5044563;28;20556;-91
2021/07/27 07:34:48;;;;;;;7.25;6.32;;;21.90;80.00;;;;;;5043956;28;20207;-91
2021/07/27 07:37:14;;;;;;;7.57;6.63;;;22.00;79.70;;;;;;5044290;28;20305;-91
2021/07/27 07:39:40;;;;;;;7.57;6.60;;;22.10;76.70;;;;;;5044679;28;20200;-90
2021/07/27 07:42:07;;;;;;;7.20;6.57;;;22.10;77.00;;;;;;5025008;28;20691;-91
2021/07/27 07:44:33;;;;;;;7.95;7.25;;;22.30;75.60;;;;;;5043421;28;20195;-90
2021/07/27 07:46:59;;;;;;;7.53;6.82;;;22.10;76.80;;;;;;5043121;28;20593;-91
2021/07/27 07:49:26;;;;;;;7.70;6.93;;;21.90;76.60;;;;;;5030706;28;20227;-91
2021/07/27 07:51:52;;;;;;;7.90;7.20;;;21.90;76.30;;;;;;5041548;28;20657;-92
2021/07/27 07:54:18;;;;;;;7.97;7.18;;;22.00;76.00;;;;;;5043471;28;20576;-91
2021/07/27 07:56:44;;;;;;;7.03;6.53;;;22.20;74.40;;;;;;5046166;28;20602;-90
2021/07/27 07:59:11;;;;;;;7.30;6.70;;;22.40;73.10;;;;;;5043967;28;20191;-90
2021/07/27 08:01:37;;;;;;;7.85;6.95;;;22.50;72.80;;;;;;5045762;28;20199;-90
2021/07/27 08:04:04;;;;;;;8.50;7.07;;;22.70;75.40;;;;;;5025089;28;20212;-90
2021/07/27 08:06:30;;;;;;;7.45;6.85;;;22.50;74.50;;;;;;5029599;28;20278;-90
2021/07/27 08:08:57;;;;;;;7.70;7.03;;;22.60;73.10;;;;;;5042399;28;20212;-90
2021/07/27 08:11:23;;;;;;;11.75;6.70;;;22.60;73.10;;;;;;5047731;28;20231;-91
2021/07/27 08:13:52;;;;;;;7.45;6.78;;;22.80;72.20;;;;;;5046579;28;20184;-91
2021/07/27 08:16:18;;;;;;;7.30;6.43;;;22.80;71.90;;;;;;5041774;28;20184;-90
2021/07/27 08:18:44;;;;;;;7.47;6.88;;;22.80;72.60;;;;;;5041607;28;20231;-91
2021/07/27 08:21:09;;;;;;;6.97;6.38;;;22.80;73.00;;;;;;5023532;28;20188;-91
2021/07/27 08:23:40;;;;;;;8.27;7.53;;;22.80;72.70;;;;;;5046081;28;20243;-91
2021/07/27 08:26:05;;;;;;;7.50;6.80;;;22.90;72.00;;;;;;5048152;28;20199;-90
2021/07/27 08:28:31;;;;;;;6.80;6.20;;;22.90;71.80;;;;;;5042629;28;20228;-91
2021/07/27 08:30:57;;;;;;;7.30;6.60;;;22.80;70.90;;;;;;5050058;28;20199;-91
2021/07/27 08:33:23;;;;;;;7.72;7.03;;;22.80;71.90;;;;;;5044410;28;20737;-92
2021/07/27 08:35:49;;;;;;;7.00;6.30;;;22.90;71.20;;;;;;5023906;28;20249;-91
2021/07/27 08:38:14;;;;;;;7.18;6.45;;;23.00;71.30;;;;;;5029662;28;20344;-90
2021/07/27 08:40:40;;;;;;;7.47;6.78;;;23.20;71.00;;;;;;5048768;28;20196;-91
2021/07/27 08:43:08;;;;;;;7.65;6.95;;;23.60;70.10;;;;;;5051202;28;20223;-91
2021/07/27 08:45:34;;;;;;;7.32;6.72;;;23.90;66.70;;;;;;5028248;28;20255;-91
2021/07/27 08:48:00;;;;;;;7.07;6.35;;;23.90;67.10;;;;;;5042372;28;20251;-91
2021/07/27 08:50:27;;;;;;;7.43;6.82;;;24.00;67.80;;;;;;5044108;28;20189;-90
2021/07/27 08:52:53;;;;;;;6.72;6.22;;;24.00;66.10;;;;;;5045026;28;20180;-91
2021/07/27 08:55:19;;;;;;;6.88;6.38;;;24.10;66.80;;;;;;5050064;28;20191;-91
2021/07/27 08:57:55;;;;;;;7.47;6.72;;;24.30;65.00;;;;;;5028806;28;20209;-92
2021/07/27 09:00:21;;;;;;;6.97;6.28;;;24.50;65.20;;;;;;5046655;28;20334;-90
2021/07/27 09:02:47;;;;;;;8.23;6.43;;;24.30;64.70;;;;;;5038913;28;20220;-91
2021/07/27 09:05:14;;;;;;;8.40;7.53;;;24.30;65.00;;;;;;5043322;28;20283;-91
2021/07/27 09:07:40;;;;;;;7.45;6.93;;;24.20;65.00;;;;;;5044402;28;20220;-91
2021/07/27 09:10:20;;;;;;;7.93;7.00;;;24.30;65.20;;;;;;5047611;28;20203;-91
2021/07/27 09:12:52;;;;;;;8.05;7.25;;;24.40;63.90;;;;;;5041761;28;20267;-90
2021/07/27 09:15:20;;;;;;;7.78;7.18;;;24.50;64.70;;;;;;5048977;28;20188;-90
2021/07/27 09:18:14;;;;;;;6.70;6.10;;;24.70;64.30;;;;;;5047585;28;20705;-90
2021/07/27 09:20:47;;;;;;;8.05;7.43;;;24.90;63.00;;;;;;5044140;28;20211;-91
2021/07/27 09:23:22;;;;;;;8.32;6.65;;;24.80;62.80;;;;;;5053096;28;20214;-91
2021/07/27 09:25:50;;;;;;;6.90;6.40;;;24.60;63.70;;;;;;5050792;28;20241;-91
2021/07/27 09:28:17;;;;;;;7.72;7.07;;;24.70;63.60;;;;;;5047639;28;20224;-91
2021/07/27 09:30:44;;;;;;;7.47;6.35;;;25.00;62.80;;;;;;5045652;28;20188;-91
2021/07/27 09:33:12;;;;;;;7.18;6.53;;;25.30;61.70;;;;;;5048509;28;20184;-91
2021/07/27 09:35:39;;;;;;;7.18;6.47;;;25.50;58.70;;;;;;5011963;28;20197;-90
2021/07/27 09:38:18;;;;;;;7.70;7.00;;;25.60;57.70;;;;;;5047028;28;20242;-90
2021/07/27 09:40:51;;;;;;;6.82;6.22;;;25.30;60.20;;;;;;5049443;28;20279;-90
2021/07/27 09:43:19;;;;;;;7.22;6.60;;;25.40;59.60;;;;;;5044312;28;20611;-90
2021/07/27 09:45:56;;;;;;;7.30;6.38;;;25.50;60.20;;;;;;5042741;28;20196;-90
2021/07/27 09:48:22;;;;;;;7.13;6.53;;;25.50;61.40;;;;;;5043274;28;20223;-90
2021/07/27 09:50:50;;;;;;;6.70;6.05;;;25.40;59.90;;;;;;5039725;28;20207;-90
2021/07/27 09:53:16;;;;;;;7.63;7.03;;;25.40;60.20;;;;;;5040239;28;20204;-90
2021/07/27 09:55:42;;;;;;;6.80;6.05;;;25.40;61.40;;;;;;5046206;28;20192;-90
2021/07/27 09:58:08;;;;;;;6.53;6.03;;;25.50;59.60;;;;;;5009349;28;20208;-90
2021/07/27 10:00:41;;;;;;;6.60;6.10;;;25.50;59.80;;;;;;5038982;28;20653;-90
2021/07/27 10:03:12;;;;;;;6.53;6.03;;;25.50;59.60;;;;;;5047594;28;20199;-90
2021/07/27 10:05:38;;;;;;;7.25;6.38;;;25.50;58.10;;;;;;5052528;28;20195;-91
2021/07/27 10:08:04;;;;;;;6.63;6.13;;;25.50;60.20;;;;;;5046717;28;20799;-90
2021/07/27 10:10:43;;;;;;;6.72;6.22;;;25.40;58.80;;;;;;5048028;28;20569;-89
2021/07/27 10:13:14;;;;;;;6.25;5.75;;;25.30;61.00;;;;;;5049282;28;20663;-91
2021/07/27 10:15:45;;;;;;;7.25;6.55;;;25.40;62.50;;;;;;5045178;28;20291;-90
2021/07/27 10:18:12;;;;;;;6.93;6.20;;;25.30;63.90;;;;;;5048600;28;20212;-90
2021/07/27 10:20:38;;;;;;;7.50;6.85;;;25.50;61.10;;;;;;5049404;28;20239;-91
2021/07/27 10:23:18;;;;;;;7.05;6.30;;;25.70;62.00;;;;;;5044455;28;20200;-90
2021/07/27 10:25:58;;;;;;;6.57;6.07;;;25.70;59.80;;;;;;5046489;28;20184;-90
2021/07/27 10:28:26;;;;;;;6.80;5.88;;;25.50;58.50;;;;;;5047933;28;20219;-90
2021/07/27 10:31:06;;;;;;;6.65;6.15;;;25.60;58.80;;;;;;5050139;28;20193;-90
2021/07/27 10:33:31;;;;;;;7.10;6.50;;;25.60;58.60;;;;;;5046747;28;20528;-88
2021/07/27 10:35:57;;;;;;;6.50;5.93;;;25.90;58.10;;;;;;5052726;28;20192;-90
2021/07/27 10:58:36;;;;;;;7.90;7.25;;;25.80;55.40;;;;;;5046251;28;20742;-91
2021/07/27 11:01:10;;;;;;;6.78;6.25;;;25.60;58.30;;;;;;5012933;28;20203;-90
2021/07/27 11:03:36;;;;;;;7.25;6.10;;;25.50;58.90;;;;;;5031441;28;20191;-91
2021/07/27 11:06:03;;;;;;;7.28;6.53;;;25.90;57.50;;;;;;5048875;28;20196;-92
2021/07/27 11:08:29;;;;;;;7.22;6.63;;;26.00;56.50;;;;;;5047615;28;20299;-91
2021/07/27 11:11:10;;;;;;;7.20;6.68;;;26.20;56.40;;;;;;5047592;28;20203;-91
2021/07/27 11:13:39;;;;;;;6.90;6.30;;;26.50;55.90;;;;;;5045072;28;20227;-91
2021/07/27 11:16:05;;;;;;;8.45;7.00;;;26.60;54.20;;;;;;5048868;28;20268;-91
2021/07/27 11:18:31;;;;;;;10.35;6.95;;;26.70;55.00;;;;;;5030749;28;20324;-90
2021/07/27 11:20:58;;;;;;;7.05;6.45;;;26.80;54.60;;;;;;5039991;28;20189;-89
2021/07/27 11:23:30;;;;;;;7.63;6.93;;;26.70;55.00;;;;;;5045956;28;20204;-89
2021/07/27 11:25:57;;;;;;;6.95;6.45;;;26.90;55.00;;;;;;5026332;28;20200;-89
2021/07/27 11:28:39;;;;;;;7.45;6.53;;;26.80;53.30;;;;;;5031064;28;20220;-91
2021/07/27 11:31:17;;;;;;;7.10;6.50;;;26.90;52.90;;;;;;5053244;28;20184;-91
2021/07/27 11:33:50;;;;;;;6.68;6.18;;;27.10;53.70;;;;;;5054043;28;20187;-90
2021/07/27 11:36:26;;;;;;;6.28;5.75;;;27.30;52.70;;;;;;5030149;28;20184;-91
2021/07/27 11:39:07;;;;;;;7.22;6.63;;;27.30;52.30;;;;;;5034113;28;20277;-91
2021/07/27 11:41:33;;;;;;;6.75;6.25;;;26.70;55.40;;;;;;5048018;28;20188;-92
2021/07/27 11:43:59;;;;;;;7.28;6.78;;;26.80;53.50;;;;;;5052352;28;20188;-91
2021/07/27 11:46:36;;;;;;;7.72;6.93;;;27.20;54.10;;;;;;5049214;28;20188;-92
2021/07/27 11:49:07;;;;;;;7.35;6.75;;;27.30;53.80;;;;;;5053276;28;20192;-91
2021/07/27 11:51:34;;;;;;;8.10;7.25;;;27.60;53.30;;;;;;5053485;28;20207;-91
2021/07/27 11:54:00;;;;;;;7.15;6.55;;;27.60;53.00;;;;;;5054301;28;20197;-91
2021/07/27 11:56:26;;;;;;;6.80;6.18;;;27.60;52.70;;;;;;5054514;28;20207;-92
2021/07/27 11:59:03;;;;;;;7.18;6.57;;;27.40;54.10;;;;;;5035205;28;20216;-91
2021/07/27 12:01:55;;;;;;;7.35;6.65;;;27.30;54.20;;;;;;5054207;28;20231;-91
2021/07/27 12:04:22;;;;;;;7.20;6.60;;;27.60;52.20;;;;;;5037133;28;20196;-91
2021/07/27 12:06:49;;;;;;;7.30;6.70;;;27.60;52.20;;;;;;5056518;28;20200;-91
2021/07/27 12:09:15;;;;;;;7.38;6.68;;;27.50;52.90;;;;;;5049952;28;20185;-92
2021/07/27 12:11:42;;;;;;;7.40;6.80;;;27.50;52.10;;;;;;5025340;28;20193;-92
2021/07/27 12:14:08;;;;;;;7.10;6.50;;;27.50;52.50;;;;;;5039350;28;20283;-91
2021/07/27 12:16:34;;;;;;;7.40;6.70;;;27.80;53.50;;;;;;5037250;28;20224;-91
2021/07/27 12:19:00;;;;;;;7.05;6.45;;;27.80;53.10;;;;;;5057048;28;20180;-92
2021/07/27 12:21:25;;;;;;;7.03;6.35;;;28.00;52.20;;;;;;5052032;28;20204;-91
2021/07/27 12:23:51;;;;;;;7.00;6.50;;;27.90;51.70;;;;;;5057912;28;20188;-91
2021/07/27 12:26:17;;;;;;;8.15;6.82;;;27.80;52.00;;;;;;5024773;28;20265;-92
2021/07/27 12:28:43;;;;;;;7.60;7.00;;;27.60;54.10;;;;;;5061050;28;20216;-91
2021/07/27 12:31:08;;;;;;;7.18;6.63;;;27.60;54.50;;;;;;5035606;28;20333;-91
2021/07/27 12:33:34;;;;;;;7.13;6.63;;;27.90;53.30;;;;;;5050894;28;20252;-92
2021/07/27 12:36:00;;;;;;;7.40;6.80;;;28.00;53.00;;;;;;5047386;28;20184;-92
2021/07/27 12:38:26;;;;;;;7.90;7.13;;;28.20;51.80;;;;;;5051812;28;20232;-91
2021/07/27 12:40:52;;;;;;;7.20;6.50;;;28.40;52.00;;;;;;5050658;28;20200;-91
2021/07/27 12:43:18;;;;;;;7.35;6.65;;;28.70;50.40;;;;;;5054468;28;20334;-92
2021/07/27 12:45:44;;;;;;;7.43;6.78;;;28.80;49.50;;;;;;5035521;28;20189;-92
2021/07/27 12:48:10;;;;;;;7.40;6.80;;;28.70;48.70;;;;;;5022475;28;20285;-92
2021/07/27 12:50:37;;;;;;;6.28;5.82;;;28.50;50.60;;;;;;5020755;28;20192;-92
2021/07/27 12:53:03;;;;;;;6.22;5.80;;;28.60;50.90;;;;;;5040082;28;20196;-89
2021/07/27 12:55:28;;;;;;;7.63;6.93;;;28.60;50.40;;;;;;5034559;28;20192;-88
2021/07/27 12:57:54;;;;;;;7.20;6.63;;;28.60;50.20;;;;;;5039056;28;20715;-92
2021/07/27 13:00:20;;;;;;;7.65;7.05;;;28.50;49.40;;;;;;5057350;28;20189;-90
2021/07/27 13:02:46;;;;;;;8.00;7.28;;;28.70;48.90;;;;;;5053465;28;20288;-90
2021/07/27 13:05:12;;;;;;;8.30;6.90;;;28.60;47.00;;;;;;5052767;28;20188;-91
2021/07/27 13:07:38;;;;;;;7.22;6.72;;;28.50;45.50;;;;;;5038747;28;20222;-90
2021/07/27 13:10:04;;;;;;;7.75;7.05;;;28.60;44.50;;;;;;5047170;28;20185;-88
2021/07/27 13:12:30;;;;;;;7.25;6.65;;;28.70;47.20;;;;;;5054214;28;20197;-91
2021/07/27 13:14:57;;;;;;;8.02;6.90;;;28.70;45.40;;;;;;5035077;28;20207;-91
2021/07/27 13:17:24;;;;;;;7.68;7.07;;;28.60;45.50;;;;;;5051250;28;20257;-90
2021/07/27 13:19:49;;;;;;;7.35;6.82;;;28.70;44.60;;;;;;5033519;28;20208;-91
2021/07/27 13:22:15;;;;;;;7.78;7.18;;;28.60;44.00;;;;;;5050285;28;20197;-90
2021/07/27 13:24:41;;;;;;;8.18;7.55;;;28.60;42.70;;;;;;5050143;28;20196;-90
2021/07/27 13:27:08;;;;;;;7.45;6.85;;;28.50;43.60;;;;;;5049114;28;20276;-90
2021/07/27 13:29:37;;;;;;;7.15;6.65;;;28.70;44.30;;;;;;5049279;28;20249;-88
2021/07/27 13:32:04;;;;;;;7.25;6.50;;;28.80;42.90;;;;;;5057832;28;20195;-91
2021/07/27 13:34:30;;;;;;;7.68;7.07;;;28.70;45.60;;;;;;5037084;28;20184;-91
2021/07/27 13:36:56;;;;;;;7.88;7.28;;;28.50;44.80;;;;;;5050254;28;20208;-91
2021/07/27 13:39:22;;;;;;;7.80;7.20;;;28.60;45.00;;;;;;5037348;28;20281;-91
2021/07/27 13:41:47;;;;;;;7.60;7.00;;;28.50;45.50;;;;;;5050584;28;20238;-91
2021/07/27 13:44:13;;;;;;;7.45;6.95;;;28.40;46.10;;;;;;5050793;28;20184;-91
2021/07/27 13:46:39;;;;;;;7.22;6.63;;;28.30;45.10;;;;;;5055651;28;20184;-91
2021/07/27 13:49:05;;;;;;;8.05;7.45;;;28.40;45.00;;;;;;5050174;28;20188;-91
2021/07/27 13:51:31;;;;;;;8.25;7.45;;;28.30;44.80;;;;;;5054333;28;20180;-91
2021/07/27 13:53:59;;;;;;;8.43;7.82;;;28.50;44.90;;;;;;5016272;28;20209;-92
2021/07/27 13:56:25;;;;;;;7.65;6.97;;;28.60;45.00;;;;;;5057463;28;20184;-93
2021/07/27 13:58:51;;;;;;;7.40;6.75;;;28.80;45.40;;;;;;5048610;28;20219;-93
2021/07/27 14:01:16;;;;;;;7.10;6.60;;;28.90;44.10;;;;;;5046256;28;20615;-92
2021/07/27 14:03:42;;;;;;;8.20;7.50;;;28.80;45.10;;;;;;5052052;28;20727;-93
2021/07/27 14:06:08;;;;;;;7.63;7.13;;;29.00;45.30;;;;;;5050429;28;20621;-93
2021/07/27 14:08:35;;;;;;;7.53;7.03;;;29.30;44.40;;;;;;5051901;28;20238;-92
2021/07/27 14:11:00;;;;;;;7.78;7.18;;;29.40;43.00;;;;;;5046762;28;20276;-93
2021/07/27 14:13:26;;;;;;;8.35;7.72;;;29.50;42.20;;;;;;5050868;28;20231;-92
2021/07/27 14:15:52;;;;;;;8.23;7.20;;;29.60;43.30;;;;;;5047391;28;20188;-92
2021/07/27 14:18:18;;;;;;;8.48;7.78;;;29.90;41.40;;;;;;5044765;28;20216;-92
2021/07/27 14:20:44;;;;;;;8.77;7.65;;;29.90;42.50;;;;;;5049165;28;20196;-92
2021/07/27 14:23:10;;;;;;;7.53;7.00;;;29.70;44.80;;;;;;5031342;28;20192;-91
2021/07/27 14:25:36;;;;;;;8.13;7.53;;;29.60;44.90;;;;;;5021174;28;20203;-92
2021/07/27 14:28:01;;;;;;;8.27;7.57;;;29.50;43.30;;;;;;5048540;28;20673;-92
2021/07/27 14:30:27;;;;;;;7.75;7.10;;;29.40;43.00;;;;;;5047192;28;20189;-91
2021/07/27 14:32:53;;;;;;;7.50;6.90;;;29.20;44.10;;;;;;5015616;28;20184;-91
2021/07/27 14:35:19;;;;;;;8.23;7.43;;;29.10;43.50;;;;;;5047767;28;20199;-90
2021/07/27 14:37:47;;;;;;;8.20;7.32;;;29.00;43.50;;;;;;5028164;28;20220;-93
2021/07/27 14:40:13;;;;;;;7.65;7.00;;;28.80;45.30;;;;;;5011767;28;20219;-92
2021/07/27 14:42:39;;;;;;;8.30;7.55;;;28.90;44.70;;;;;;5036164;28;20181;-92